sensor_id;sensor_type;location;lat;lon;timestamp;temperature;humidity
3727;DHT22;1879;45.876;12.300;2022-12-07T00:01:22;4.70;99.90
3727;DHT22;1879;45.876;12.300;2022-12-07T00:03:51;4.80;99.90
3727;DHT22;1879;45.876;12.300;2022-12-07T00:06:19;5.00;99.90
3727;DHT22;1879;45.876;12.300;2022-12-07T00:08:46;5.10;99.90
3727;DHT22;1879;45.876;12.300;2022-12-07T00:11:15;5.00;99.90
3727;DHT22;1879;45.876;12.300;2022-12-07T00:13:43;4.80;99.90
3727;DHT22;1879;45.876;12.300;2022-12-07T00:16:13;4.70;99.90
3727;DHT22;1879;45.876;12.300;2022-12-07T00:18:41;4.60;99.90
3727;DHT22;1879;45.876;12.300;2022-12-07T00:21:10;4.50;99.90
3727;DHT22;1879;45.876;12.300;2022-12-07T00:23:38;4.40;99.90
3727;DHT22;1879;45.876;12.300;2022-12-07T00:26:07;4.40;99.90
3727;DHT22;1879;45.876;12.300;2022-12-07T00:28:34;4.40;99.90
3727;DHT22;1879;45.876;12.300;2022-12-07T00:31:03;4.40;99.90
3727;DHT22;1879;45.876;12.300;2022-12-07T00:33:32;4.40;99.90
3727;DHT22;1879;45.876;12.300;2022-12-07T00:35:59;4.40;99.90
3727;DHT22;1879;45.876;12.300;2022-12-07T00:38:29;4.40;99.90
3727;DHT22;1879;45.876;12.300;2022-12-07T00:40:56;4.40;99.90
3727;DHT22;1879;45.876;12.300;2022-12-07T00:43:23;4.30;99.90
3727;DHT22;1879;45.876;12.300;2022-12-07T00:45:50;4.30;99.90
3727;DHT22;1879;45.876;12.300;2022-12-07T00:48:17;4.30;99.90
3727;DHT22;1879;45.876;12.300;2022-12-07T00:50:46;4.30;99.90
3727;DHT22;1879;45.876;12.300;2022-12-07T00:53:13;4.30;99.90
3727;DHT22;1879;45.876;12.300;2022-12-07T00:55:40;4.20;99.90
3727;DHT22;1879;45.876;12.300;2022-12-07T00:58:07;4.20;99.90
3727;DHT22;1879;45.876;12.300;2022-12-07T01:00:36;4.20;99.90
3727;DHT22;1879;45.876;12.300;2022-12-07T01:03:05;4.10;99.90
3727;DHT22;1879;45.876;12.300;2022-12-07T01:05:32;4.20;99.90
3727;DHT22;1879;45.876;12.300;2022-12-07T01:08:02;4.20;99.90
3727;DHT22;1879;45.876;12.300;2022-12-07T01:10:29;4.30;99.90
3727;DHT22;1879;45.876;12.300;2022-12-07T01:12:57;4.20;99.90
3727;DHT22;1879;45.876;12.300;2022-12-07T01:15:25;4.10;99.90
3727;DHT22;1879;45.876;12.300;2022-12-07T01:17:51;4.10;99.90
3727;DHT22;1879;45.876;12.300;2022-12-07T01:20:20;4.00;99.90
3727;DHT22;1879;45.876;12.300;2022-12-07T01:22:47;4.00;99.90
3727;DHT22;1879;45.876;12.300;2022-12-07T01:25:15;4.00;99.90
3727;DHT22;1879;45.876;12.300;2022-12-07T01:27:42;4.00;99.90
3727;DHT22;1879;45.876;12.300;2022-12-07T01:30:10;4.00;99.90
3727;DHT22;1879;45.876;12.300;2022-12-07T01:32:37;4.00;99.90
3727;DHT22;1879;45.876;12.300;2022-12-07T01:35:05;4.00;99.90
3727;DHT22;1879;45.876;12.300;2022-12-07T01:37:35;4.00;99.90
3727;DHT22;1879;45.876;12.300;2022-12-07T01:40:03;4.00;99.90
3727;DHT22;1879;45.876;12.300;2022-12-07T01:42:32;4.00;99.90
3727;DHT22;1879;45.876;12.300;2022-12-07T01:48:04;3.90;99.90
3727;DHT22;1879;45.876;12.300;2022-12-07T01:50:32;3.90;99.90
3727;DHT22;1879;45.876;12.300;2022-12-07T01:53:00;3.90;99.90
3727;DHT22;1879;45.876;12.300;2022-12-07T01:55:29;4.00;99.90
3727;DHT22;1879;45.876;12.300;2022-12-07T01:57:58;4.00;99.90
3727;DHT22;1879;45.876;12.300;2022-12-07T02:00:25;4.00;99.90
3727;DHT22;1879;45.876;12.300;2022-12-07T02:02:55;4.00;99.90
3727;DHT22;1879;45.876;12.300;2022-12-07T02:05:24;4.00;99.90
3727;DHT22;1879;45.876;12.300;2022-12-07T02:07:53;4.10;99.90
3727;DHT22;1879;45.876;12.300;2022-12-07T02:10:22;4.00;99.90
3727;DHT22;1879;45.876;12.300;2022-12-07T02:12:52;4.00;99.90
3727;DHT22;1879;45.876;12.300;2022-12-07T02:15:27;4.10;99.90
3727;DHT22;1879;45.876;12.300;2022-12-07T02:18:01;4.10;99.90
3727;DHT22;1879;45.876;12.300;2022-12-07T02:20:33;4.20;99.90
3727;DHT22;1879;45.876;12.300;2022-12-07T02:26:51;4.10;99.90
3727;DHT22;1879;45.876;12.300;2022-12-07T02:29:26;4.10;99.90
3727;DHT22;1879;45.876;12.300;2022-12-07T02:32:02;4.20;99.90
3727;DHT22;1879;45.876;12.300;2022-12-07T02:34:39;4.30;99.90
3727;DHT22;1879;45.876;12.300;2022-12-07T02:37:12;4.30;99.90
3727;DHT22;1879;45.876;12.300;2022-12-07T02:39:44;4.40;99.90
3727;DHT22;1879;45.876;12.300;2022-12-07T02:42:17;4.40;99.90
3727;DHT22;1879;45.876;12.300;2022-12-07T02:44:46;4.40;99.90
3727;DHT22;1879;45.876;12.300;2022-12-07T02:47:16;4.40;99.90
3727;DHT22;1879;45.876;12.300;2022-12-07T02:49:44;4.40;99.90
3727;DHT22;1879;45.876;12.300;2022-12-07T02:52:11;4.40;99.90
3727;DHT22;1879;45.876;12.300;2022-12-07T02:54:38;4.50;99.90
3727;DHT22;1879;45.876;12.300;2022-12-07T02:57:18;4.50;99.90
3727;DHT22;1879;45.876;12.300;2022-12-07T03:00:00;4.40;99.90
3727;DHT22;1879;45.876;12.300;2022-12-07T03:02:35;4.40;99.90
3727;DHT22;1879;45.876;12.300;2022-12-07T03:05:27;4.40;99.90
3727;DHT22;1879;45.876;12.300;2022-12-07T03:08:02;4.50;99.90
3727;DHT22;1879;45.876;12.300;2022-12-07T03:10:38;4.40;99.90
3727;DHT22;1879;45.876;12.300;2022-12-07T03:13:12;4.40;99.90
3727;DHT22;1879;45.876;12.300;2022-12-07T03:15:47;4.40;99.90
3727;DHT22;1879;45.876;12.300;2022-12-07T03:18:19;4.40;99.90
3727;DHT22;1879;45.876;12.300;2022-12-07T03:20:50;4.40;99.90
3727;DHT22;1879;45.876;12.300;2022-12-07T03:23:18;4.30;99.90
3727;DHT22;1879;45.876;12.300;2022-12-07T03:25:48;4.30;99.90
3727;DHT22;1879;45.876;12.300;2022-12-07T03:28:17;4.20;99.90
3727;DHT22;1879;45.876;12.300;2022-12-07T03:30:50;4.20;99.90
3727;DHT22;1879;45.876;12.300;2022-12-07T03:33:22;4.10;99.90
3727;DHT22;1879;45.876;12.300;2022-12-07T03:35:57;4.20;99.90
3727;DHT22;1879;45.876;12.300;2022-12-07T03:38:31;4.10;99.90
3727;DHT22;1879;45.876;12.300;2022-12-07T03:41:01;4.10;99.90
3727;DHT22;1879;45.876;12.300;2022-12-07T03:43:32;4.10;99.90
3727;DHT22;1879;45.876;12.300;2022-12-07T03:46:06;4.20;99.90
3727;DHT22;1879;45.876;12.300;2022-12-07T03:48:40;4.20;99.90
3727;DHT22;1879;45.876;12.300;2022-12-07T03:51:13;4.30;99.90
3727;DHT22;1879;45.876;12.300;2022-12-07T03:53:44;4.20;99.90
3727;DHT22;1879;45.876;12.300;2022-12-07T03:56:14;4.30;99.90
3727;DHT22;1879;45.876;12.300;2022-12-07T03:58:41;4.20;99.90
3727;DHT22;1879;45.876;12.300;2022-12-07T04:01:10;4.30;99.90
3727;DHT22;1879;45.876;12.300;2022-12-07T04:03:38;4.20;99.90
3727;DHT22;1879;45.876;12.300;2022-12-07T04:06:05;4.20;99.90
3727;DHT22;1879;45.876;12.300;2022-12-07T04:08:32;4.30;99.90
3727;DHT22;1879;45.876;12.300;2022-12-07T04:10:59;4.40;99.90
3727;DHT22;1879;45.876;12.300;2022-12-07T04:13:26;4.40;99.90
3727;DHT22;1879;45.876;12.300;2022-12-07T04:15:53;4.40;99.90
3727;DHT22;1879;45.876;12.300;2022-12-07T04:18:21;4.40;99.90
3727;DHT22;1879;45.876;12.300;2022-12-07T04:20:48;4.40;99.90
3727;DHT22;1879;45.876;12.300;2022-12-07T04:23:15;4.50;99.90
3727;DHT22;1879;45.876;12.300;2022-12-07T04:25:42;4.50;99.90
3727;DHT22;1879;45.876;12.300;2022-12-07T04:28:09;4.60;99.90
3727;DHT22;1879;45.876;12.300;2022-12-07T04:30:36;4.60;99.90
3727;DHT22;1879;45.876;12.300;2022-12-07T04:33:03;4.60;99.90
3727;DHT22;1879;45.876;12.300;2022-12-07T04:35:31;4.60;99.90
3727;DHT22;1879;45.876;12.300;2022-12-07T04:37:58;4.70;99.90
3727;DHT22;1879;45.876;12.300;2022-12-07T04:40:25;4.70;99.90
3727;DHT22;1879;45.876;12.300;2022-12-07T04:42:52;4.70;99.90
3727;DHT22;1879;45.876;12.300;2022-12-07T04:45:19;4.70;99.90
3727;DHT22;1879;45.876;12.300;2022-12-07T04:47:48;4.70;99.90
3727;DHT22;1879;45.876;12.300;2022-12-07T04:50:15;4.60;99.90
3727;DHT22;1879;45.876;12.300;2022-12-07T04:52:43;4.60;99.90
3727;DHT22;1879;45.876;12.300;2022-12-07T04:55:10;4.50;99.90
3727;DHT22;1879;45.876;12.300;2022-12-07T04:57:37;4.50;99.90
3727;DHT22;1879;45.876;12.300;2022-12-07T05:00:05;4.50;99.90
3727;DHT22;1879;45.876;12.300;2022-12-07T05:02:32;4.60;99.90
3727;DHT22;1879;45.876;12.300;2022-12-07T05:04:59;4.60;99.90
3727;DHT22;1879;45.876;12.300;2022-12-07T05:07:28;4.70;99.90
3727;DHT22;1879;45.876;12.300;2022-12-07T05:09:57;4.70;99.90
3727;DHT22;1879;45.876;12.300;2022-12-07T05:12:23;4.50;99.90
3727;DHT22;1879;45.876;12.300;2022-12-07T05:14:53;4.40;99.90
3727;DHT22;1879;45.876;12.300;2022-12-07T05:17:20;4.30;99.90
3727;DHT22;1879;45.876;12.300;2022-12-07T05:19:47;4.20;99.90
3727;DHT22;1879;45.876;12.300;2022-12-07T05:22:14;4.20;99.90
3727;DHT22;1879;45.876;12.300;2022-12-07T05:24:41;4.20;99.90
3727;DHT22;1879;45.876;12.300;2022-12-07T05:27:09;4.20;99.90
3727;DHT22;1879;45.876;12.300;2022-12-07T05:29:36;4.20;99.90
3727;DHT22;1879;45.876;12.300;2022-12-07T05:32:03;4.10;99.90
3727;DHT22;1879;45.876;12.300;2022-12-07T05:34:30;4.00;99.90
3727;DHT22;1879;45.876;12.300;2022-12-07T05:36:57;3.90;99.90
3727;DHT22;1879;45.876;12.300;2022-12-07T05:39:24;3.90;99.90
3727;DHT22;1879;45.876;12.300;2022-12-07T05:41:51;3.80;99.90
3727;DHT22;1879;45.876;12.300;2022-12-07T05:44:37;3.80;99.90
3727;DHT22;1879;45.876;12.300;2022-12-07T05:47:04;3.80;99.90
3727;DHT22;1879;45.876;12.300;2022-12-07T05:49:31;3.70;99.90
3727;DHT22;1879;45.876;12.300;2022-12-07T05:51:58;3.70;99.90
3727;DHT22;1879;45.876;12.300;2022-12-07T05:54:25;3.70;99.90
3727;DHT22;1879;45.876;12.300;2022-12-07T05:56:52;3.70;99.90
3727;DHT22;1879;45.876;12.300;2022-12-07T05:59:19;3.70;99.90
3727;DHT22;1879;45.876;12.300;2022-12-07T06:01:55;3.80;99.90
3727;DHT22;1879;45.876;12.300;2022-12-07T06:04:24;3.80;99.90
3727;DHT22;1879;45.876;12.300;2022-12-07T06:06:51;3.70;99.90
3727;DHT22;1879;45.876;12.300;2022-12-07T06:09:19;3.70;99.90
3727;DHT22;1879;45.876;12.300;2022-12-07T06:11:47;3.70;99.90
3727;DHT22;1879;45.876;12.300;2022-12-07T06:14:32;3.70;99.90
3727;DHT22;1879;45.876;12.300;2022-12-07T06:17:00;3.60;99.90
3727;DHT22;1879;45.876;12.300;2022-12-07T06:19:27;3.60;99.90
3727;DHT22;1879;45.876;12.300;2022-12-07T06:21:54;3.60;99.90
3727;DHT22;1879;45.876;12.300;2022-12-07T06:24:22;3.60;99.90
3727;DHT22;1879;45.876;12.300;2022-12-07T06:26:49;3.60;99.90
3727;DHT22;1879;45.876;12.300;2022-12-07T06:29:17;3.50;99.90
3727;DHT22;1879;45.876;12.300;2022-12-07T06:31:44;3.50;99.90
3727;DHT22;1879;45.876;12.300;2022-12-07T06:34:14;3.50;99.90
3727;DHT22;1879;45.876;12.300;2022-12-07T06:36:41;3.50;99.90
3727;DHT22;1879;45.876;12.300;2022-12-07T06:39:09;3.50;99.90
3727;DHT22;1879;45.876;12.300;2022-12-07T06:41:36;3.50;99.90
3727;DHT22;1879;45.876;12.300;2022-12-07T06:44:07;3.60;99.90
3727;DHT22;1879;45.876;12.300;2022-12-07T06:46:34;3.60;99.90
3727;DHT22;1879;45.876;12.300;2022-12-07T06:49:02;3.60;99.90
3727;DHT22;1879;45.876;12.300;2022-12-07T06:51:30;3.70;99.90
3727;DHT22;1879;45.876;12.300;2022-12-07T06:53:57;3.70;99.90
3727;DHT22;1879;45.876;12.300;2022-12-07T06:56:24;3.70;99.90
3727;DHT22;1879;45.876;12.300;2022-12-07T06:58:51;3.70;99.90
3727;DHT22;1879;45.876;12.300;2022-12-07T07:01:18;3.60;99.90
3727;DHT22;1879;45.876;12.300;2022-12-07T07:03:47;3.70;99.90
3727;DHT22;1879;45.876;12.300;2022-12-07T07:06:14;3.60;99.90
3727;DHT22;1879;45.876;12.300;2022-12-07T07:08:43;3.70;99.90
3727;DHT22;1879;45.876;12.300;2022-12-07T07:11:12;3.70;99.90
3727;DHT22;1879;45.876;12.300;2022-12-07T07:13:39;3.80;99.90
3727;DHT22;1879;45.876;12.300;2022-12-07T07:16:07;3.80;99.90
3727;DHT22;1879;45.876;12.300;2022-12-07T07:18:34;3.90;99.90
3727;DHT22;1879;45.876;12.300;2022-12-07T07:21:02;3.90;99.90
3727;DHT22;1879;45.876;12.300;2022-12-07T07:23:29;3.90;99.90
3727;DHT22;1879;45.876;12.300;2022-12-07T07:25:58;3.90;99.90
3727;DHT22;1879;45.876;12.300;2022-12-07T07:28:25;4.00;99.90
3727;DHT22;1879;45.876;12.300;2022-12-07T07:30:52;4.10;99.90
3727;DHT22;1879;45.876;12.300;2022-12-07T07:33:19;4.10;99.90
3727;DHT22;1879;45.876;12.300;2022-12-07T07:35:46;4.20;99.90
3727;DHT22;1879;45.876;12.300;2022-12-07T07:38:13;4.30;99.90
3727;DHT22;1879;45.876;12.300;2022-12-07T07:40:40;4.30;99.90
3727;DHT22;1879;45.876;12.300;2022-12-07T07:43:08;4.40;99.90
3727;DHT22;1879;45.876;12.300;2022-12-07T07:45:36;4.40;99.90
3727;DHT22;1879;45.876;12.300;2022-12-07T07:48:03;4.40;99.90
3727;DHT22;1879;45.876;12.300;2022-12-07T07:50:30;4.50;99.90
3727;DHT22;1879;45.876;12.300;2022-12-07T07:52:57;4.50;99.90
3727;DHT22;1879;45.876;12.300;2022-12-07T07:55:24;4.50;99.90
3727;DHT22;1879;45.876;12.300;2022-12-07T07:57:51;4.60;99.90
3727;DHT22;1879;45.876;12.300;2022-12-07T08:00:20;4.70;99.90
3727;DHT22;1879;45.876;12.300;2022-12-07T08:02:47;4.80;99.90
3727;DHT22;1879;45.876;12.300;2022-12-07T08:05:14;4.90;99.90
3727;DHT22;1879;45.876;12.300;2022-12-07T08:07:44;5.00;99.90
3727;DHT22;1879;45.876;12.300;2022-12-07T08:10:12;5.10;99.90
3727;DHT22;1879;45.876;12.300;2022-12-07T08:12:41;5.10;99.90
3727;DHT22;1879;45.876;12.300;2022-12-07T08:15:25;5.20;99.90
3727;DHT22;1879;45.876;12.300;2022-12-07T08:17:52;5.20;99.90
3727;DHT22;1879;45.876;12.300;2022-12-07T08:20:19;5.30;99.90
3727;DHT22;1879;45.876;12.300;2022-12-07T08:22:46;5.40;99.90
3727;DHT22;1879;45.876;12.300;2022-12-07T08:25:13;5.40;99.90
3727;DHT22;1879;45.876;12.300;2022-12-07T08:27:40;5.50;99.90
3727;DHT22;1879;45.876;12.300;2022-12-07T08:30:08;5.60;99.90
3727;DHT22;1879;45.876;12.300;2022-12-07T08:32:36;5.80;99.90
3727;DHT22;1879;45.876;12.300;2022-12-07T08:35:04;5.90;99.90
3727;DHT22;1879;45.876;12.300;2022-12-07T08:37:31;6.00;99.90
3727;DHT22;1879;45.876;12.300;2022-12-07T08:39:58;6.10;99.90
3727;DHT22;1879;45.876;12.300;2022-12-07T08:42:25;6.30;99.90
3727;DHT22;1879;45.876;12.300;2022-12-07T08:44:55;6.50;99.90
3727;DHT22;1879;45.876;12.300;2022-12-07T08:47:23;6.60;99.90
3727;DHT22;1879;45.876;12.300;2022-12-07T08:49:53;6.80;99.90
3727;DHT22;1879;45.876;12.300;2022-12-07T08:52:20;6.90;99.90
3727;DHT22;1879;45.876;12.300;2022-12-07T08:54:48;7.10;99.90
3727;DHT22;1879;45.876;12.300;2022-12-07T08:57:15;7.20;99.90
3727;DHT22;1879;45.876;12.300;2022-12-07T08:59:42;7.40;99.90
3727;DHT22;1879;45.876;12.300;2022-12-07T09:02:09;7.50;99.90
3727;DHT22;1879;45.876;12.300;2022-12-07T09:04:36;7.70;99.90
3727;DHT22;1879;45.876;12.300;2022-12-07T09:07:04;7.80;99.90
3727;DHT22;1879;45.876;12.300;2022-12-07T09:09:31;8.00;99.90
3727;DHT22;1879;45.876;12.300;2022-12-07T09:11:59;8.20;99.90
3727;DHT22;1879;45.876;12.300;2022-12-07T09:14:25;8.30;99.90
3727;DHT22;1879;45.876;12.300;2022-12-07T09:16:52;8.40;99.90
3727;DHT22;1879;45.876;12.300;2022-12-07T09:19:19;8.60;99.90
3727;DHT22;1879;45.876;12.300;2022-12-07T09:21:46;8.60;99.90
3727;DHT22;1879;45.876;12.300;2022-12-07T09:24:15;8.70;99.90
3727;DHT22;1879;45.876;12.300;2022-12-07T09:26:42;8.70;99.90
3727;DHT22;1879;45.876;12.300;2022-12-07T09:29:09;8.80;99.90
3727;DHT22;1879;45.876;12.300;2022-12-07T09:31:37;9.00;99.90
3727;DHT22;1879;45.876;12.300;2022-12-07T09:34:04;9.00;99.90
3727;DHT22;1879;45.876;12.300;2022-12-07T09:36:32;9.00;99.90
3727;DHT22;1879;45.876;12.300;2022-12-07T09:38:59;9.00;99.90
3727;DHT22;1879;45.876;12.300;2022-12-07T09:41:29;9.10;99.90
3727;DHT22;1879;45.876;12.300;2022-12-07T09:44:03;9.10;99.90
3727;DHT22;1879;45.876;12.300;2022-12-07T09:46:34;9.20;99.90
3727;DHT22;1879;45.876;12.300;2022-12-07T09:49:03;9.40;99.90
3727;DHT22;1879;45.876;12.300;2022-12-07T09:51:30;9.50;99.90
3727;DHT22;1879;45.876;12.300;2022-12-07T09:53:58;9.50;99.90
3727;DHT22;1879;45.876;12.300;2022-12-07T09:56:29;9.70;99.90
3727;DHT22;1879;45.876;12.300;2022-12-07T09:58:59;9.80;99.90
3727;DHT22;1879;45.876;12.300;2022-12-07T10:01:28;9.80;99.90
3727;DHT22;1879;45.876;12.300;2022-12-07T10:04:01;9.90;99.90
3727;DHT22;1879;45.876;12.300;2022-12-07T10:06:28;10.00;99.90
3727;DHT22;1879;45.876;12.300;2022-12-07T10:08:55;10.00;99.90
3727;DHT22;1879;45.876;12.300;2022-12-07T10:11:22;10.10;99.90
3727;DHT22;1879;45.876;12.300;2022-12-07T10:13:52;10.10;99.40
3727;DHT22;1879;45.876;12.300;2022-12-07T10:16:40;10.10;99.10
3727;DHT22;1879;45.876;12.300;2022-12-07T10:19:23;10.20;98.40
3727;DHT22;1879;45.876;12.300;2022-12-07T10:22:07;10.30;99.60
3727;DHT22;1879;45.876;12.300;2022-12-07T10:24:35;10.40;98.40
3727;DHT22;1879;45.876;12.300;2022-12-07T10:27:18;10.50;98.60
3727;DHT22;1879;45.876;12.300;2022-12-07T10:29:50;10.50;97.80
3727;DHT22;1879;45.876;12.300;2022-12-07T10:32:32;10.60;97.80
3727;DHT22;1879;45.876;12.300;2022-12-07T10:35:20;10.70;97.30
3727;DHT22;1879;45.876;12.300;2022-12-07T10:37:49;10.80;97.00
3727;DHT22;1879;45.876;12.300;2022-12-07T10:40:31;10.80;97.30
3727;DHT22;1879;45.876;12.300;2022-12-07T10:43:05;10.90;96.10
3727;DHT22;1879;45.876;12.300;2022-12-07T10:45:35;10.80;95.90
3727;DHT22;1879;45.876;12.300;2022-12-07T10:48:12;10.80;95.20
3727;DHT22;1879;45.876;12.300;2022-12-07T10:51:02;10.80;94.80
3727;DHT22;1879;45.876;12.300;2022-12-07T10:53:48;10.80;94.10
3727;DHT22;1879;45.876;12.300;2022-12-07T10:56:44;10.90;94.90
3727;DHT22;1879;45.876;12.300;2022-12-07T10:59:29;10.90;95.00
3727;DHT22;1879;45.876;12.300;2022-12-07T11:02:17;11.00;95.20
3727;DHT22;1879;45.876;12.300;2022-12-07T11:04:59;11.20;95.50
3727;DHT22;1879;45.876;12.300;2022-12-07T11:07:38;11.40;95.50
3727;DHT22;1879;45.876;12.300;2022-12-07T11:10:08;11.50;94.70
3727;DHT22;1879;45.876;12.300;2022-12-07T11:12:54;11.80;94.20
3727;DHT22;1879;45.876;12.300;2022-12-07T11:15:28;12.40;93.80
3727;DHT22;1879;45.876;12.300;2022-12-07T11:18:04;13.00;92.50
3727;DHT22;1879;45.876;12.300;2022-12-07T11:20:39;14.30;91.70
3727;DHT22;1879;45.876;12.300;2022-12-07T11:23:16;16.00;89.90
3727;DHT22;1879;45.876;12.300;2022-12-07T11:25:52;17.80;81.10
3727;DHT22;1879;45.876;12.300;2022-12-07T11:28:34;19.20;94.20
3727;DHT22;1879;45.876;12.300;2022-12-07T11:31:13;20.30;95.80
3727;DHT22;1879;45.876;12.300;2022-12-07T11:33:46;21.50;65.10
3727;DHT22;1879;45.876;12.300;2022-12-07T11:36:28;22.40;91.00
3727;DHT22;1879;45.876;12.300;2022-12-07T11:39:01;23.20;57.80
3727;DHT22;1879;45.876;12.300;2022-12-07T11:41:31;24.00;54.60
3727;DHT22;1879;45.876;12.300;2022-12-07T11:44:04;24.50;52.70
3727;DHT22;1879;45.876;12.300;2022-12-07T11:46:43;24.90;66.70
3727;DHT22;1879;45.876;12.300;2022-12-07T11:49:19;25.10;50.90
3727;DHT22;1879;45.876;12.300;2022-12-07T11:51:50;25.50;46.90
3727;DHT22;1879;45.876;12.300;2022-12-07T11:54:23;25.70;46.30
3727;DHT22;1879;45.876;12.300;2022-12-07T11:56:51;26.00;45.90
3727;DHT22;1879;45.876;12.300;2022-12-07T11:59:25;26.20;45.80
3727;DHT22;1879;45.876;12.300;2022-12-07T12:01:58;26.50;45.10
3727;DHT22;1879;45.876;12.300;2022-12-07T12:04:33;26.70;55.20
3727;DHT22;1879;45.876;12.300;2022-12-07T12:07:06;26.90;41.80
3727;DHT22;1879;45.876;12.300;2022-12-07T12:09:35;27.00;42.10
3727;DHT22;1879;45.876;12.300;2022-12-07T12:12:22;27.00;41.20
3727;DHT22;1879;45.876;12.300;2022-12-07T12:15:01;27.30;40.70
3727;DHT22;1879;45.876;12.300;2022-12-07T12:17:56;27.20;39.90
3727;DHT22;1879;45.876;12.300;2022-12-07T12:20:30;27.40;39.40
3727;DHT22;1879;45.876;12.300;2022-12-07T12:23:01;27.80;39.40
3727;DHT22;1879;45.876;12.300;2022-12-07T12:25:37;28.10;39.70
3727;DHT22;1879;45.876;12.300;2022-12-07T12:28:05;28.10;38.90
3727;DHT22;1879;45.876;12.300;2022-12-07T12:30:35;28.50;59.80
3727;DHT22;1879;45.876;12.300;2022-12-07T12:33:05;29.40;37.50
3727;DHT22;1879;45.876;12.300;2022-12-07T12:35:36;29.50;38.30
3727;DHT22;1879;45.876;12.300;2022-12-07T12:38:29;29.60;36.60
3727;DHT22;1879;45.876;12.300;2022-12-07T12:40:57;29.80;35.80
3727;DHT22;1879;45.876;12.300;2022-12-07T12:43:54;29.50;36.70
3727;DHT22;1879;45.876;12.300;2022-12-07T12:46:39;29.40;35.10
3727;DHT22;1879;45.876;12.300;2022-12-07T12:49:33;29.20;35.60
3727;DHT22;1879;45.876;12.300;2022-12-07T12:58:42;25.00;37.20
3727;DHT22;1879;45.876;12.300;2022-12-07T13:04:49;20.30;40.80
3727;DHT22;1879;45.876;12.300;2022-12-07T13:10:36;18.30;44.10
3727;DHT22;1879;45.876;12.300;2022-12-07T13:13:34;17.50;46.00
3727;DHT22;1879;45.876;12.300;2022-12-07T13:22:42;16.70;47.80
3727;DHT22;1879;45.876;12.300;2022-12-07T13:25:12;16.50;47.20
3727;DHT22;1879;45.876;12.300;2022-12-07T13:27:42;16.40;47.80
3727;DHT22;1879;45.876;12.300;2022-12-07T13:30:14;16.40;48.20
3727;DHT22;1879;45.876;12.300;2022-12-07T13:32:42;16.40;48.40
3727;DHT22;1879;45.876;12.300;2022-12-07T13:35:31;16.10;48.80
3727;DHT22;1879;45.876;12.300;2022-12-07T13:37:59;15.90;49.70
3727;DHT22;1879;45.876;12.300;2022-12-07T13:40:27;15.80;49.90
3727;DHT22;1879;45.876;12.300;2022-12-07T13:43:00;15.90;50.10
3727;DHT22;1879;45.876;12.300;2022-12-07T13:45:32;16.20;50.50
3727;DHT22;1879;45.876;12.300;2022-12-07T13:48:19;17.40;50.40
3727;DHT22;1879;45.876;12.300;2022-12-07T13:50:53;19.20;48.70
3727;DHT22;1879;45.876;12.300;2022-12-07T13:53:22;20.80;46.30
3727;DHT22;1879;45.876;12.300;2022-12-07T13:55:49;21.90;45.10
3727;DHT22;1879;45.876;12.300;2022-12-07T13:58:18;22.70;42.80
3727;DHT22;1879;45.876;12.300;2022-12-07T14:00:45;23.20;42.80
3727;DHT22;1879;45.876;12.300;2022-12-07T14:03:30;23.60;42.70
3727;DHT22;1879;45.876;12.300;2022-12-07T14:06:07;23.80;41.80
3727;DHT22;1879;45.876;12.300;2022-12-07T14:08:43;23.80;41.60
3727;DHT22;1879;45.876;12.300;2022-12-07T14:11:15;23.50;41.50
3727;DHT22;1879;45.876;12.300;2022-12-07T14:13:54;22.90;40.80
3727;DHT22;1879;45.876;12.300;2022-12-07T14:16:26;22.20;40.90
3727;DHT22;1879;45.876;12.300;2022-12-07T14:18:55;21.40;41.50
3727;DHT22;1879;45.876;12.300;2022-12-07T14:21:23;20.60;41.90
3727;DHT22;1879;45.876;12.300;2022-12-07T14:24:12;19.90;42.70
3727;DHT22;1879;45.876;12.300;2022-12-07T14:26:42;19.20;43.80
3727;DHT22;1879;45.876;12.300;2022-12-07T14:29:31;18.80;43.80
3727;DHT22;1879;45.876;12.300;2022-12-07T14:32:22;18.50;43.60
3727;DHT22;1879;45.876;12.300;2022-12-07T14:35:01;18.20;43.90
3727;DHT22;1879;45.876;12.300;2022-12-07T14:37:30;17.60;45.10
3727;DHT22;1879;45.876;12.300;2022-12-07T14:39:57;17.00;46.00
3727;DHT22;1879;45.876;12.300;2022-12-07T14:42:27;16.40;47.00
3727;DHT22;1879;45.876;12.300;2022-12-07T14:44:56;15.80;48.10
3727;DHT22;1879;45.876;12.300;2022-12-07T14:47:23;15.40;49.40
3727;DHT22;1879;45.876;12.300;2022-12-07T14:49:51;15.10;50.10
3727;DHT22;1879;45.876;12.300;2022-12-07T14:52:21;14.80;50.80
3727;DHT22;1879;45.876;12.300;2022-12-07T14:54:48;14.50;51.40
3727;DHT22;1879;45.876;12.300;2022-12-07T14:57:15;14.20;52.30
3727;DHT22;1879;45.876;12.300;2022-12-07T14:59:42;13.90;53.10
3727;DHT22;1879;45.876;12.300;2022-12-07T15:02:12;13.70;53.70
3727;DHT22;1879;45.876;12.300;2022-12-07T15:07:15;13.20;55.30
3727;DHT22;1879;45.876;12.300;2022-12-07T15:09:44;12.90;56.70
3727;DHT22;1879;45.876;12.300;2022-12-07T15:12:11;12.80;57.90
3727;DHT22;1879;45.876;12.300;2022-12-07T15:14:38;12.60;59.20
3727;DHT22;1879;45.876;12.300;2022-12-07T15:17:05;12.40;60.60
3727;DHT22;1879;45.876;12.300;2022-12-07T15:19:33;12.20;62.30
3727;DHT22;1879;45.876;12.300;2022-12-07T15:22:00;11.90;63.60
3727;DHT22;1879;45.876;12.300;2022-12-07T15:24:27;11.80;64.70
3727;DHT22;1879;45.876;12.300;2022-12-07T15:26:54;11.70;66.80
3727;DHT22;1879;45.876;12.300;2022-12-07T15:29:21;11.60;69.10
3727;DHT22;1879;45.876;12.300;2022-12-07T15:31:49;11.50;71.80
3727;DHT22;1879;45.876;12.300;2022-12-07T15:34:16;11.40;76.10
3727;DHT22;1879;45.876;12.300;2022-12-07T15:36:45;11.30;79.20
3727;DHT22;1879;45.876;12.300;2022-12-07T15:39:12;11.20;84.00
3727;DHT22;1879;45.876;12.300;2022-12-07T15:41:39;11.10;90.00
3727;DHT22;1879;45.876;12.300;2022-12-07T15:44:08;11.00;90.90
3727;DHT22;1879;45.876;12.300;2022-12-07T15:46:52;10.90;92.10
3727;DHT22;1879;45.876;12.300;2022-12-07T15:49:19;10.80;93.20
3727;DHT22;1879;45.876;12.300;2022-12-07T15:51:48;10.70;95.30
3727;DHT22;1879;45.876;12.300;2022-12-07T15:54:19;10.60;96.30
3727;DHT22;1879;45.876;12.300;2022-12-07T15:56:46;10.50;97.90
3727;DHT22;1879;45.876;12.300;2022-12-07T15:59:13;10.40;98.70
3727;DHT22;1879;45.876;12.300;2022-12-07T16:01:41;10.40;99.30
3727;DHT22;1879;45.876;12.300;2022-12-07T16:04:08;10.20;99.40
3727;DHT22;1879;45.876;12.300;2022-12-07T16:06:35;10.00;99.90
3727;DHT22;1879;45.876;12.300;2022-12-07T16:09:04;9.90;99.90
3727;DHT22;1879;45.876;12.300;2022-12-07T16:11:32;9.70;99.90
3727;DHT22;1879;45.876;12.300;2022-12-07T16:13:59;9.70;99.90
3727;DHT22;1879;45.876;12.300;2022-12-07T16:16:26;9.70;99.90
3727;DHT22;1879;45.876;12.300;2022-12-07T16:18:53;9.60;99.90
3727;DHT22;1879;45.876;12.300;2022-12-07T16:21:21;9.60;99.90
3727;DHT22;1879;45.876;12.300;2022-12-07T16:23:48;9.50;99.90
3727;DHT22;1879;45.876;12.300;2022-12-07T16:26:18;9.50;99.90
3727;DHT22;1879;45.876;12.300;2022-12-07T16:28:48;9.40;99.90
3727;DHT22;1879;45.876;12.300;2022-12-07T16:31:17;9.40;99.90
3727;DHT22;1879;45.876;12.300;2022-12-07T16:33:44;9.20;99.90
3727;DHT22;1879;45.876;12.300;2022-12-07T16:38:41;9.00;99.90
3727;DHT22;1879;45.876;12.300;2022-12-07T16:41:09;8.90;99.90
3727;DHT22;1879;45.876;12.300;2022-12-07T16:43:38;8.80;99.90
3727;DHT22;1879;45.876;12.300;2022-12-07T16:46:06;8.80;99.90
3727;DHT22;1879;45.876;12.300;2022-12-07T16:48:35;8.70;99.90
3727;DHT22;1879;45.876;12.300;2022-12-07T16:51:03;8.70;99.90